createdAt,value
2017-05-04T00:02:22.432Z,88.86
2017-05-04T00:04:50.154Z,88.50
2017-05-04T00:07:17.695Z,88.53
2017-05-04T00:09:45.274Z,88.71
2017-05-04T00:12:12.907Z,89.30
2017-05-04T00:14:40.432Z,88.67
2017-05-04T00:17:07.998Z,89.13
2017-05-04T00:19:35.531Z,89.11
2017-05-04T00:22:03.097Z,88.76
2017-05-04T00:24:30.632Z,89.30
2017-05-04T00:26:58.203Z,88.26
2017-05-04T00:29:25.888Z,87.67
2017-05-04T00:31:53.461Z,87.54
2017-05-04T00:34:21.036Z,87.84
2017-05-04T00:36:48.602Z,88.17
2017-05-04T00:39:16.157Z,88.27
2017-05-04T00:41:43.700Z,88.05
2017-05-04T00:44:11.500Z,88.77
2017-05-04T00:46:39.023Z,88.60
2017-05-04T00:49:06.595Z,88.44
2017-05-04T00:51:34.167Z,87.54
2017-05-04T00:54:01.692Z,87.26
2017-05-04T00:56:29.252Z,87.23
2017-05-04T00:58:56.779Z,87.84
2017-05-04T01:01:24.460Z,87.23
2017-05-04T01:03:51.987Z,87.81
2017-05-04T01:06:19.514Z,88.09
2017-05-04T01:08:47.099Z,88.05
2017-05-04T01:11:14.633Z,88.28
2017-05-04T01:13:42.324Z,88.53
2017-05-04T01:16:09.851Z,89.18
2017-05-04T01:18:37.383Z,88.50
2017-05-04T01:21:04.943Z,89.44
2017-05-04T01:23:32.463Z,88.27
2017-05-04T01:26:00.138Z,89.15
2017-05-04T01:28:27.748Z,88.70
2017-05-04T01:30:55.298Z,89.76
2017-05-04T01:33:22.852Z,88.27
2017-05-04T01:35:50.474Z,88.36
2017-05-04T01:38:18.615Z,89.05
2017-05-04T01:40:46.159Z,88.68
2017-05-04T01:43:13.687Z,89.26
2017-05-04T01:45:41.398Z,88.23
2017-05-04T01:48:08.936Z,88.45
2017-05-04T01:50:36.456Z,89.23
2017-05-04T01:53:04.012Z,88.90
2017-05-04T01:55:31.539Z,89.73
2017-05-04T01:57:59.255Z,89.58
2017-05-04T02:00:26.792Z,89.12
2017-05-04T02:02:54.306Z,88.96
2017-05-04T02:05:21.903Z,88.88
2017-05-04T02:07:49.436Z,89.63
2017-05-04T02:10:17.244Z,90.27
2017-05-04T02:12:44.781Z,90.10
2017-05-04T02:15:12.304Z,89.84
2017-05-04T02:17:39.878Z,89.46
2017-05-04T02:20:07.412Z,88.82
2017-05-04T02:22:34.979Z,88.38
2017-05-04T02:25:02.514Z,88.45
2017-05-04T02:27:30.198Z,88.28
2017-05-04T02:29:57.724Z,89.30
2017-05-04T02:32:25.339Z,89.94
2017-05-04T02:34:52.912Z,89.02
2017-05-04T02:37:20.464Z,88.83
2017-05-04T02:39:48.218Z,89.54
2017-05-04T02:42:15.745Z,89.73
2017-05-04T02:44:43.266Z,89.54
2017-05-04T02:47:11.012Z,89.16
2017-05-04T02:49:38.557Z,89.20
2017-05-04T02:52:06.084Z,89.36
2017-05-04T02:54:33.673Z,89.60
2017-05-04T02:57:01.567Z,89.51
2017-05-04T02:59:29.137Z,89.43
2017-05-04T03:01:56.655Z,89.83
2017-05-04T03:04:24.221Z,89.76
2017-05-04T03:06:51.748Z,89.48
2017-05-04T03:09:19.443Z,88.17
2017-05-04T03:11:46.971Z,88.29
2017-05-04T03:14:14.496Z,88.85
2017-05-04T03:16:42.080Z,89.22
2017-05-04T03:19:09.599Z,89.18
2017-05-04T03:21:37.295Z,89.80
2017-05-04T03:24:04.820Z,89.71
2017-05-04T03:26:32.350Z,89.93
2017-05-04T03:28:59.912Z,88.87
2017-05-04T03:31:27.436Z,89.37
2017-05-04T03:33:55.105Z,89.12
2017-05-04T03:36:22.633Z,89.11
2017-05-04T03:38:50.153Z,88.91
2017-05-04T03:41:17.856Z,88.54
2017-05-04T03:43:45.419Z,88.80
2017-05-04T03:46:12.960Z,87.95
2017-05-04T03:48:40.544Z,88.65
2017-05-04T03:51:08.062Z,88.85
2017-05-04T03:53:35.748Z,88.46
2017-05-04T03:56:03.271Z,88.47
2017-05-04T03:58:30.791Z,88.82
2017-05-04T04:00:58.475Z,89.54
2017-05-04T04:03:26.008Z,89.71
2017-05-04T04:05:53.533Z,89.49
2017-05-04T04:08:21.140Z,88.76
2017-05-04T04:10:48.700Z,89.00
2017-05-04T04:13:16.273Z,88.71
2017-05-04T04:15:43.824Z,88.67
2017-05-04T04:18:11.677Z,89.09
2017-05-04T04:20:39.199Z,88.65
2017-05-04T04:23:06.721Z,88.50
2017-05-04T04:25:34.285Z,88.41
2017-05-04T04:28:01.823Z,88.54
2017-05-04T04:30:29.592Z,88.16
2017-05-04T04:32:57.135Z,88.13
2017-05-04T04:35:24.658Z,88.88
2017-05-04T04:37:52.240Z,88.33
2017-05-04T04:40:19.811Z,87.82
2017-05-04T04:42:47.479Z,89.05
2017-05-04T04:45:15.011Z,88.54
2017-05-04T04:47:42.554Z,88.33
2017-05-04T04:50:10.208Z,88.74
2017-05-04T04:52:37.775Z,88.55
2017-05-04T04:55:05.545Z,87.29
2017-05-04T04:57:33.085Z,87.76
2017-05-04T05:00:00.611Z,88.08
2017-05-04T05:02:28.197Z,88.52
2017-05-04T05:04:55.730Z,88.48
2017-05-04T05:07:23.408Z,88.17
2017-05-04T05:09:50.956Z,88.54
2017-05-04T05:12:18.507Z,88.06
2017-05-04T05:14:46.088Z,88.73
2017-05-04T05:17:13.615Z,87.96
2017-05-04T05:19:41.164Z,88.43
2017-05-04T05:22:08.700Z,86.51
2017-05-04T05:24:36.473Z,86.52
2017-05-04T05:27:04.072Z,87.00
2017-05-04T05:29:31.663Z,87.34
2017-05-04T05:31:59.251Z,86.03
2017-05-04T05:34:26.812Z,86.89
2017-05-04T05:36:54.408Z,86.78
2017-05-04T05:39:21.964Z,85.86
2017-05-04T05:41:49.547Z,87.42
2017-05-04T05:44:17.103Z,88.43
2017-05-04T05:46:45.032Z,88.85
2017-05-04T05:49:12.580Z,88.54
2017-05-04T05:51:40.149Z,88.88
2017-05-04T05:54:07.987Z,88.50
2017-05-04T05:56:35.504Z,87.67
2017-05-04T05:59:03.153Z,87.76
2017-05-04T06:01:30.707Z,87.85
2017-05-04T06:03:58.249Z,88.51
2017-05-04T06:06:26.114Z,88.29
2017-05-04T06:08:53.649Z,88.39
2017-05-04T06:11:21.216Z,88.53
2017-05-04T06:13:48.770Z,87.22
2017-05-04T06:16:16.307Z,86.01
2017-05-04T06:18:44.306Z,85.98
2017-05-04T06:21:11.900Z,86.63
2017-05-04T06:23:39.437Z,86.73
2017-05-04T06:26:07.007Z,86.59
2017-05-04T06:28:34.548Z,86.89
2017-05-04T06:31:02.114Z,87.20
2017-05-04T06:33:29.650Z,86.39
2017-05-04T06:35:57.197Z,87.06
2017-05-04T06:38:24.796Z,84.55
2017-05-04T06:40:52.321Z,86.56
2017-05-04T06:43:19.883Z,86.01
2017-05-04T06:45:47.417Z,86.10
2017-05-04T06:48:15.239Z,84.44
2017-05-04T06:50:42.771Z,84.17
2017-05-04T06:53:10.324Z,83.90
2017-05-04T06:55:37.889Z,85.67
2017-05-04T06:58:05.426Z,84.88
2017-05-04T07:00:32.979Z,84.89
2017-05-04T07:03:00.572Z,83.85
2017-05-04T07:05:28.107Z,83.47
2017-05-04T07:07:55.677Z,83.64
2017-05-04T07:10:23.204Z,84.52
2017-05-04T07:12:51.171Z,84.11
2017-05-04T07:15:18.739Z,85.32
2017-05-04T07:17:46.292Z,84.58
2017-05-04T07:20:13.914Z,83.27
2017-05-04T07:22:41.448Z,81.90
2017-05-04T07:25:09.003Z,82.36
2017-05-04T07:27:36.528Z,82.06
2017-05-04T07:30:04.450Z,82.00
2017-05-04T07:32:31.970Z,82.94
2017-05-04T07:34:59.554Z,83.70
2017-05-04T07:37:27.200Z,81.62
2017-05-04T07:39:54.847Z,81.92
2017-05-04T07:42:22.439Z,81.04
2017-05-04T07:44:50.184Z,83.22
2017-05-04T07:47:17.741Z,82.87
2017-05-04T07:49:45.336Z,82.48
2017-05-04T07:52:12.911Z,81.62
2017-05-04T07:54:40.433Z,79.96
2017-05-04T07:57:07.997Z,82.37
2017-05-04T07:59:35.536Z,81.05
2017-05-04T08:02:03.515Z,81.54
2017-05-04T08:04:31.083Z,79.78
2017-05-04T08:06:58.631Z,79.25
2017-05-04T08:09:26.240Z,79.75
2017-05-04T08:11:53.772Z,78.90
2017-05-04T08:14:21.470Z,79.59
2017-05-04T08:16:49.040Z,79.56
2017-05-04T08:19:16.587Z,80.35
2017-05-04T08:21:44.196Z,79.15
2017-05-04T08:24:11.723Z,77.61
2017-05-04T08:26:39.403Z,77.30
2017-05-04T08:29:07.029Z,77.58
2017-05-04T08:31:34.576Z,78.15
2017-05-04T08:34:02.181Z,78.84
2017-05-04T08:36:30.024Z,75.35
2017-05-04T08:38:57.592Z,75.91
2017-05-04T08:41:25.123Z,75.70
2017-05-04T08:43:52.680Z,75.61
2017-05-04T08:46:20.247Z,76.28
2017-05-04T08:48:48.200Z,76.95
2017-05-04T08:51:15.748Z,75.93
2017-05-04T08:53:43.302Z,76.73
2017-05-04T08:56:10.883Z,74.89
2017-05-04T08:58:38.418Z,73.70
2017-05-04T09:01:06.116Z,73.84
2017-05-04T09:03:34.379Z,74.41
2017-05-04T09:06:01.973Z,76.03
2017-05-04T09:08:31.681Z,75.91
2017-05-04T09:10:59.276Z,75.50
2017-05-04T09:13:26.825Z,74.35
2017-05-04T09:15:54.400Z,75.70
2017-05-04T09:18:21.939Z,73.50
2017-05-04T09:20:49.522Z,73.87
2017-05-04T09:23:17.125Z,73.66
2017-05-04T09:25:44.823Z,72.32
2017-05-04T09:28:12.362Z,73.31
2017-05-04T09:30:39.917Z,73.03
2017-05-04T09:33:07.516Z,72.87
2017-05-04T09:35:35.066Z,74.34
2017-05-04T09:38:02.643Z,73.76
2017-05-04T09:40:30.220Z,75.20
2017-05-04T09:42:57.967Z,74.05
2017-05-04T09:45:25.541Z,73.83
2017-05-04T09:47:53.067Z,73.40
2017-05-04T09:50:20.773Z,75.08
2017-05-04T09:52:48.292Z,77.38
2017-05-04T09:55:15.859Z,77.62
2017-05-04T09:57:43.459Z,77.39
2017-05-04T10:00:11.020Z,76.45
2017-05-04T10:02:38.581Z,76.53
2017-05-04T10:05:06.129Z,79.67
2017-05-04T10:07:33.796Z,79.94
2017-05-04T10:10:01.319Z,78.76
2017-05-04T10:12:28.852Z,78.00
2017-05-04T10:14:56.424Z,79.19
2017-05-04T10:17:24.019Z,79.44
2017-05-04T10:19:51.588Z,78.54
2017-05-04T10:22:19.141Z,78.04
2017-05-04T10:24:46.711Z,80.73
2017-05-04T10:27:14.245Z,80.75
2017-05-04T10:29:42.046Z,80.44
2017-05-04T10:32:09.572Z,79.15
2017-05-04T10:34:37.104Z,79.03
2017-05-04T10:37:04.683Z,78.90
2017-05-04T10:39:32.233Z,78.46
2017-05-04T10:42:00.182Z,79.13
2017-05-04T10:44:27.711Z,79.35
2017-05-04T10:46:55.240Z,80.03
2017-05-04T10:49:22.825Z,79.98
2017-05-04T10:51:50.357Z,79.61
2017-05-04T10:54:18.063Z,78.64
2017-05-04T10:56:45.654Z,79.83
2017-05-04T10:59:13.172Z,80.34
2017-05-04T11:01:40.732Z,77.94
2017-05-04T11:04:08.267Z,78.13
2017-05-04T11:06:35.848Z,78.50
2017-05-04T11:09:03.379Z,77.85
2017-05-04T11:11:31.052Z,78.29
2017-05-04T11:13:58.576Z,77.29
2017-05-04T11:16:26.094Z,76.29
2017-05-04T11:18:53.676Z,76.35
2017-05-04T11:21:21.234Z,77.20
2017-05-04T11:23:48.805Z,76.79
2017-05-04T11:26:16.375Z,76.99
2017-05-04T11:28:44.218Z,76.67
2017-05-04T11:31:11.747Z,76.85
2017-05-04T11:33:39.339Z,75.06
2017-05-04T11:36:07.144Z,74.81
2017-05-04T11:38:34.680Z,75.77
2017-05-04T11:41:02.195Z,74.21
2017-05-04T11:43:29.752Z,74.32
2017-05-04T11:45:57.341Z,75.94
2017-05-04T11:48:25.065Z,73.80
2017-05-04T11:50:52.591Z,74.56
2017-05-04T11:53:20.128Z,74.20
2017-05-04T11:55:47.687Z,74.07
2017-05-04T11:58:15.224Z,72.65
2017-05-04T12:00:43.062Z,72.22
2017-05-04T12:03:10.659Z,72.95
2017-05-04T12:05:38.223Z,71.92
2017-05-04T12:08:05.815Z,73.30
2017-05-04T12:10:33.463Z,74.58
2017-05-04T12:13:01.017Z,74.59
2017-05-04T12:15:28.894Z,74.83
2017-05-04T12:17:56.472Z,74.67
2017-05-04T12:20:24.078Z,72.97
2017-05-04T12:22:51.753Z,71.92
2017-05-04T12:25:19.291Z,73.49
2017-05-04T12:27:46.980Z,72.56
2017-05-04T12:30:14.507Z,70.69
2017-05-04T12:32:42.073Z,71.24
2017-05-04T12:35:09.763Z,69.75
2017-05-04T12:37:37.308Z,69.56
2017-05-04T12:40:04.949Z,67.44
2017-05-04T12:42:32.497Z,65.90
2017-05-04T12:45:00.099Z,67.38
2017-05-04T12:47:27.629Z,64.86
2017-05-04T12:49:55.272Z,64.96
2017-05-04T12:52:22.837Z,64.83
2017-05-04T12:54:50.392Z,63.58
2017-05-04T12:57:18.032Z,63.78
2017-05-04T12:59:45.681Z,62.77
2017-05-04T13:02:13.290Z,62.98
2017-05-04T13:04:40.925Z,64.04
2017-05-04T13:07:08.479Z,65.74
2017-05-04T13:09:36.079Z,65.51
2017-05-04T13:12:03.644Z,64.44
2017-05-04T13:14:31.483Z,63.92
2017-05-04T13:16:59.039Z,63.50
2017-05-04T13:19:26.629Z,63.61
2017-05-04T13:21:54.540Z,64.51
2017-05-04T13:24:22.077Z,64.55
2017-05-04T13:26:49.612Z,63.93
2017-05-04T13:29:17.172Z,65.61
2017-05-04T13:31:44.686Z,63.82
2017-05-04T13:34:12.247Z,66.99
2017-05-04T13:36:39.789Z,64.73
2017-05-04T13:39:07.669Z,64.54
2017-05-04T13:41:35.265Z,65.34
2017-05-04T13:44:02.824Z,64.79
2017-05-04T13:46:30.380Z,66.16
2017-05-04T13:48:57.912Z,65.38
2017-05-04T13:51:25.477Z,63.96
2017-05-04T13:53:53.021Z,65.81
2017-05-04T13:56:20.698Z,65.36
2017-05-04T13:58:48.232Z,63.87
2017-05-04T14:01:15.793Z,64.24
2017-05-04T14:03:43.378Z,63.38
2017-05-04T14:06:10.901Z,62.56
2017-05-04T14:08:38.493Z,61.90
2017-05-04T14:11:06.046Z,61.78
2017-05-04T14:13:33.631Z,63.02
2017-05-04T14:16:01.198Z,62.89
2017-05-04T14:18:28.777Z,62.58
2017-05-04T14:20:56.318Z,63.03
2017-05-04T14:23:24.115Z,63.16
2017-05-04T14:25:51.759Z,63.13
2017-05-04T14:28:19.305Z,61.58
2017-05-04T14:30:46.881Z,62.40
2017-05-04T14:33:14.415Z,61.92
2017-05-04T14:35:42.034Z,62.68
2017-05-04T14:38:09.595Z,62.11
2017-05-04T14:40:37.528Z,62.15
2017-05-04T14:43:05.165Z,61.35
2017-05-04T14:45:32.717Z,61.47
2017-05-04T14:48:00.317Z,61.41
2017-05-04T14:50:27.991Z,61.55
2017-05-04T14:52:55.696Z,60.62
2017-05-04T14:55:23.270Z,59.87
2017-05-04T14:57:50.872Z,60.00
2017-05-04T15:00:18.519Z,60.17
2017-05-04T15:02:46.086Z,59.76
2017-05-04T15:05:13.725Z,58.80
2017-05-04T15:07:41.279Z,57.28
2017-05-04T15:10:08.924Z,56.65
2017-05-04T15:12:36.455Z,55.60
2017-05-04T15:15:04.140Z,56.31
2017-05-04T15:17:31.672Z,55.35
2017-05-04T15:19:59.219Z,56.96
2017-05-04T15:22:27.059Z,56.14
2017-05-04T15:24:54.621Z,56.56
2017-05-04T15:27:22.603Z,56.76
2017-05-04T15:29:50.182Z,55.66
2017-05-04T15:32:17.773Z,57.16
2017-05-04T15:34:45.456Z,56.58
2017-05-04T15:37:13.009Z,56.98
2017-05-04T15:39:40.652Z,57.31
2017-05-04T15:42:08.316Z,57.07
2017-05-04T15:44:36.054Z,57.58
2017-05-04T15:47:03.596Z,57.58
2017-05-04T15:49:31.224Z,58.49
2017-05-04T15:51:58.797Z,58.86
2017-05-04T15:54:26.489Z,60.07
2017-05-04T15:56:54.139Z,59.04
2017-05-04T15:59:21.705Z,58.92
2017-05-04T16:01:49.633Z,59.61
2017-05-04T16:04:17.213Z,59.87
2017-05-04T16:06:44.819Z,60.78
2017-05-04T16:09:12.421Z,60.98
2017-05-04T16:11:40.035Z,60.16
2017-05-04T16:14:07.688Z,59.55
2017-05-04T16:16:35.215Z,60.70
2017-05-04T16:19:02.973Z,59.79
2017-05-04T16:21:30.537Z,59.89
2017-05-04T16:23:58.073Z,59.70
2017-05-04T16:26:25.725Z,59.57
2017-05-04T16:28:53.340Z,58.79
2017-05-04T16:31:20.953Z,59.41
2017-05-04T16:33:48.536Z,60.50
2017-05-04T16:36:16.275Z,60.53
2017-05-04T16:38:43.813Z,59.69
2017-05-04T16:41:11.380Z,59.97
2017-05-04T16:43:38.969Z,59.91
2017-05-04T16:46:06.588Z,59.93
2017-05-04T16:48:34.326Z,59.91
2017-05-04T16:51:01.857Z,60.30
2017-05-04T16:53:30.326Z,59.08
2017-05-04T16:55:57.897Z,59.40
2017-05-04T16:58:25.440Z,59.77
2017-05-04T17:00:53.228Z,60.08
2017-05-04T17:03:20.901Z,59.64
2017-05-04T17:05:48.452Z,60.57
2017-05-04T17:08:16.258Z,60.65
2017-05-04T17:10:44.344Z,60.48
2017-05-04T17:13:12.047Z,59.24
2017-05-04T17:15:39.772Z,60.84
2017-05-04T17:18:07.316Z,60.66
2017-05-04T17:20:34.898Z,61.45
2017-05-04T17:23:02.518Z,60.36
2017-05-04T17:25:30.093Z,61.10
2017-05-04T17:27:57.804Z,62.17
2017-05-04T17:30:25.423Z,61.44
2017-05-04T17:32:53.009Z,62.94
2017-05-04T17:35:20.622Z,62.31
2017-05-04T17:37:48.645Z,63.32
2017-05-04T17:40:16.197Z,63.87
2017-05-04T17:42:43.758Z,63.62
2017-05-04T17:45:11.337Z,64.22
2017-05-04T17:47:38.888Z,63.71
2017-05-04T17:50:06.475Z,64.94
2017-05-04T17:52:34.013Z,65.74
2017-05-04T17:55:01.629Z,65.61
2017-05-04T17:57:29.181Z,65.57
2017-05-04T17:59:56.723Z,65.77
2017-05-04T18:02:24.296Z,65.61
2017-05-04T18:04:51.840Z,66.27
2017-05-04T18:07:19.428Z,65.20
2017-05-04T18:09:46.985Z,66.01
2017-05-04T18:12:14.565Z,66.01
2017-05-04T18:14:42.134Z,65.77
2017-05-04T18:17:09.748Z,66.83
2017-05-04T18:19:37.312Z,67.81
2017-05-04T18:22:04.917Z,67.92
2017-05-04T18:24:32.512Z,66.54
2017-05-04T18:27:00.096Z,67.51
2017-05-04T18:29:27.810Z,67.15
2017-05-04T18:31:55.347Z,67.05
2017-05-04T18:34:23.191Z,67.71
2017-05-04T18:36:50.720Z,67.79
2017-05-04T18:39:18.313Z,68.21
2017-05-04T18:41:46.211Z,67.65
2017-05-04T18:44:13.761Z,67.74
2017-05-04T18:46:41.302Z,67.85
2017-05-04T18:49:08.889Z,67.13
2017-05-04T18:51:36.450Z,66.87
2017-05-04T18:54:04.064Z,67.85
2017-05-04T18:56:31.599Z,67.48
2017-05-04T18:58:59.203Z,67.66
2017-05-04T19:01:26.743Z,67.27
2017-05-04T19:03:54.339Z,67.46
2017-05-04T19:06:21.890Z,67.58
2017-05-04T19:08:49.488Z,67.45
2017-05-04T19:11:17.084Z,68.06
2017-05-04T19:13:44.609Z,68.64
2017-05-04T19:16:12.169Z,68.14
2017-05-04T19:18:39.685Z,68.81
2017-05-04T19:21:07.625Z,68.46
2017-05-04T19:23:35.177Z,68.03
2017-05-04T19:26:02.741Z,68.13
2017-05-04T19:28:30.614Z,68.08
2017-05-04T19:30:58.136Z,68.49
2017-05-04T19:33:25.675Z,69.15
2017-05-04T19:35:53.603Z,68.63
2017-05-04T19:38:21.146Z,69.29
2017-05-04T19:40:48.681Z,69.72
2017-05-04T19:43:16.259Z,68.93
2017-05-04T19:45:43.810Z,69.22
2017-05-04T19:48:11.815Z,69.02
2017-05-04T19:50:39.348Z,69.95
2017-05-04T19:53:06.883Z,69.54
2017-05-04T19:55:34.456Z,69.82
2017-05-04T19:58:01.997Z,69.04
2017-05-04T20:00:29.560Z,68.19
2017-05-04T20:02:57.094Z,68.26
2017-05-04T20:05:25.014Z,68.61
2017-05-04T20:07:52.561Z,68.26
2017-05-04T20:10:20.886Z,69.91
2017-05-04T20:12:48.481Z,69.23
2017-05-04T20:15:15.999Z,68.59
2017-05-04T20:17:43.568Z,69.29
2017-05-04T20:20:11.117Z,68.36
2017-05-04T20:22:39.044Z,67.93
2017-05-04T20:25:06.583Z,67.41
2017-05-04T20:27:34.108Z,68.99
2017-05-04T20:30:01.686Z,69.79
2017-05-04T20:32:29.219Z,69.32
2017-05-04T20:34:57.048Z,69.89
2017-05-04T20:37:24.608Z,70.61
2017-05-04T20:39:52.149Z,70.18
2017-05-04T20:42:19.721Z,69.92
2017-05-04T20:44:47.327Z,70.51
2017-05-04T20:47:14.851Z,69.87
2017-05-04T20:49:42.390Z,69.11
2017-05-04T20:52:09.989Z,69.30
2017-05-04T20:54:37.531Z,69.42
2017-05-04T20:57:05.120Z,69.70
2017-05-04T20:59:32.648Z,69.31
2017-05-04T21:02:00.248Z,70.18
2017-05-04T21:04:27.828Z,70.60
2017-05-04T21:06:55.363Z,70.32
2017-05-04T21:09:22.933Z,70.29
2017-05-04T21:11:50.480Z,69.20
2017-05-04T21:14:18.355Z,70.81
2017-05-04T21:16:45.933Z,69.76
2017-05-04T21:19:13.474Z,69.74
2017-05-04T21:21:41.030Z,70.54
2017-05-04T21:24:08.577Z,69.90
2017-05-04T21:26:36.143Z,70.40
2017-05-04T21:29:03.667Z,71.31
2017-05-04T21:31:31.611Z,69.56
2017-05-04T21:33:59.144Z,69.31
2017-05-04T21:36:26.671Z,69.65
2017-05-04T21:38:54.247Z,70.22
2017-05-04T21:41:21.778Z,70.77
2017-05-04T21:43:49.627Z,71.18
2017-05-04T21:46:17.142Z,71.43
2017-05-04T21:48:44.677Z,71.24
2017-05-04T21:51:12.287Z,72.46
2017-05-04T21:53:39.809Z,72.21
2017-05-04T21:56:07.529Z,72.17
2017-05-04T21:58:35.120Z,71.57
2017-05-04T22:01:02.764Z,70.67
2017-05-04T22:03:30.325Z,70.68
2017-05-04T22:05:57.863Z,71.65
2017-05-04T22:08:25.422Z,72.45
2017-05-04T22:10:53.192Z,73.18
2017-05-04T22:13:20.732Z,72.88
2017-05-04T22:15:48.521Z,71.34
2017-05-04T22:18:16.071Z,71.87
2017-05-04T22:20:43.650Z,71.28
2017-05-04T22:23:11.171Z,71.39
2017-05-04T22:25:38.815Z,71.22
2017-05-04T22:28:06.383Z,71.77
2017-05-04T22:30:34.118Z,72.14
2017-05-04T22:33:01.631Z,71.65
2017-05-04T22:35:29.150Z,72.04
2017-05-04T22:37:56.714Z,72.21
2017-05-04T22:40:24.232Z,72.88
2017-05-04T22:42:51.825Z,73.35
2017-05-04T22:45:19.364Z,73.24
2017-05-04T22:47:47.374Z,73.23
2017-05-04T22:50:14.971Z,73.27
2017-05-04T22:53:03.658Z,71.79
2017-05-04T22:55:31.594Z,72.78
2017-05-04T22:57:59.129Z,73.60
2017-05-04T23:00:26.701Z,73.36
2017-05-04T23:02:54.288Z,72.90
2017-05-04T23:05:21.919Z,73.81
2017-05-04T23:07:49.451Z,74.14
2017-05-04T23:10:16.999Z,73.99
2017-05-04T23:12:44.564Z,75.10
2017-05-04T23:15:12.093Z,74.58
2017-05-04T23:17:39.626Z,75.01
2017-05-04T23:20:07.192Z,74.28
2017-05-04T23:22:34.722Z,74.69
2017-05-04T23:25:02.602Z,74.20
2017-05-04T23:27:30.154Z,74.78
2017-05-04T23:29:57.697Z,74.57
2017-05-04T23:32:25.343Z,74.35
2017-05-04T23:34:52.949Z,74.42
2017-05-04T23:37:20.599Z,75.35
2017-05-04T23:39:48.127Z,75.54
2017-05-04T23:42:15.904Z,76.37
2017-05-04T23:44:43.537Z,76.32
2017-05-04T23:47:11.602Z,75.70
2017-05-04T23:49:39.184Z,76.17
2017-05-04T23:52:06.852Z,75.93
2017-05-04T23:54:34.415Z,76.26
2017-05-04T23:57:01.931Z,75.82
2017-05-04T23:59:30.297Z,76.97
